Sebago Lake, Maine
Current Conditions -  °F | °C
As of 4:51 PM on Saturday 25 Oct 2014 (Local Time) from KPWM Reporting Station
Scattered Clouds Scattered Clouds  
Wind Chill: 57°   Ceiling: Unl
Heat Index: 57°   Visibility: 10mi
Dew Point: 42°   Wind: 7mph
Humidity: 57%   Direction: 180°S
Pressure: 29.56"   Gusts: NA
Location:  43.76°N, 70.53°W
Report Text: KPWM 252051Z 18006KT 10SM SCT200 14/06 A2956 RMK AO2 SLP008 T01390056 56016
Loading
Personal Weather Stations






























Interactive Weather Map
Tropical Storm Tracking
New forecast layout! Learn more

10-Day Weather Forecast

Advertisements
Track Severe Weather on mobile